Portada
METAR-TAF:

METAR-TAF

Aeroports :

Ahmedabad, Índia

latitud: 23-04N, longitud: 072-38E, altitud: 55 m

Observació

L'informe es va fer fa 35 minuts, a les 16:00 UTC
Vent 6 kt del Sud/Sud-Oest
Temperatura 34°C
Humitat 63%
Pressió 1001 hPa
Visibilitat: 4000 m
fum

METAR: VAAH 171600Z 20006KT 4000 FU NSC 34/26 Q1001 NOSIG

Hora: 22:05 (16:35 UTC)

Pronòstic

L'informe es va fer fa 2 hores i 35 minuts, a les 14:00 UTC
Pronòstic vàlid del 17 a les 15 UTC al 17 a les 24 UTC
Vent 8 kt del Sud
Visibilitat: 4000 m
fum
Evolucionant progressivament
l' 17 a les 19 UTC al 17 a les 21 UTC
Vent 4 kt del Sud-Oest

TAF: VAAH 171400Z 1715/1724 18008KT 4000 FU NSC BECMG 1719/1721 23004KT

Observacions i pronòstics meteorològics de més de 4000 aeroports (METAR i TAF).

Les estacions disponibles són els punts grocs i vermells al mapa.

Posi el ratolí al punt desitjat per veure el nom de l'estació.

Feu clic per veure les observacions i els pronòstics meteorològics.

Per canviar el mapa: feu clic els botons verds amb una creu de color negre per apropar; al botó verd amb un guió per allunyar la imatge; o en les fletxes verdes per a mapes adjacents.


METAR-TAF: